Terminal Aerodrome Forecast
Issued by NWS Omaha/Valley, NE

Home | Current Version | Previous Version | Text Only | Print | Product List | Glossary On
Versions: 1 2 3 4 5 6 7 8 9 10 11 12 13 14 15 16 17 18 19 20 21 22 23 24 25 26 27 28 29 30 31 32
059
FTUS43 KOAX 270217 AAB
TAFLNK
TAF AMD
KLNK 270217Z 2702/2724 07006KT P6SM OVC015
      TEMPO 2704/2708 4SM BR OVC008
     FM270800 00000KT 3SM BR OVC007
      TEMPO 2709/2713 3/4SM BR OVC004
     FM271700 16007KT P6SM BKN050=

USA.gov is the U.S. government's official web portal to all federal, state and local government web resources and services.